sensor_id;sensor_type;location;lat;lon;timestamp;temperature;humidity
19206;DHT22;59358;52.134;5.596;2023-04-29T00:00:05;10.00;99.90
19206;DHT22;59358;52.134;5.596;2023-04-29T00:02:32;9.90;99.90
19206;DHT22;59358;52.134;5.596;2023-04-29T00:04:59;9.90;99.90
19206;DHT22;59358;52.134;5.596;2023-04-29T00:07:29;9.80;99.90
19206;DHT22;59358;52.134;5.596;2023-04-29T00:09:57;9.90;99.90
19206;DHT22;59358;52.134;5.596;2023-04-29T00:12:25;9.90;99.90
19206;DHT22;59358;52.134;5.596;2023-04-29T00:14:52;9.90;99.90
19206;DHT22;59358;52.134;5.596;2023-04-29T00:17:19;9.90;99.90
19206;DHT22;59358;52.134;5.596;2023-04-29T00:19:46;9.90;99.90
19206;DHT22;59358;52.134;5.596;2023-04-29T00:22:13;10.00;99.90
19206;DHT22;59358;52.134;5.596;2023-04-29T00:24:40;9.90;99.90
19206;DHT22;59358;52.134;5.596;2023-04-29T00:27:06;9.80;99.90
19206;DHT22;59358;52.134;5.596;2023-04-29T00:29:34;9.80;99.90
19206;DHT22;59358;52.134;5.596;2023-04-29T00:32:01;9.80;99.90
19206;DHT22;59358;52.134;5.596;2023-04-29T00:34:28;9.80;99.90
19206;DHT22;59358;52.134;5.596;2023-04-29T00:36:55;9.80;99.90
19206;DHT22;59358;52.134;5.596;2023-04-29T00:39:22;9.80;99.90
19206;DHT22;59358;52.134;5.596;2023-04-29T00:41:49;9.80;99.90
19206;DHT22;59358;52.134;5.596;2023-04-29T00:44:16;9.90;99.90
19206;DHT22;59358;52.134;5.596;2023-04-29T00:46:44;10.00;99.90
19206;DHT22;59358;52.134;5.596;2023-04-29T00:49:12;10.00;99.90
19206;DHT22;59358;52.134;5.596;2023-04-29T00:51:40;10.00;99.90
19206;DHT22;59358;52.134;5.596;2023-04-29T00:54:07;10.10;99.90
19206;DHT22;59358;52.134;5.596;2023-04-29T00:56:36;10.10;99.90
19206;DHT22;59358;52.134;5.596;2023-04-29T00:59:06;10.10;99.90
19206;DHT22;59358;52.134;5.596;2023-04-29T01:01:35;10.00;99.90
19206;DHT22;59358;52.134;5.596;2023-04-29T01:04:04;9.90;99.90
19206;DHT22;59358;52.134;5.596;2023-04-29T01:06:40;9.90;99.90
19206;DHT22;59358;52.134;5.596;2023-04-29T01:09:23;9.80;99.90
19206;DHT22;59358;52.134;5.596;2023-04-29T01:12:06;9.90;99.90
19206;DHT22;59358;52.134;5.596;2023-04-29T01:14:35;9.90;99.90
19206;DHT22;59358;52.134;5.596;2023-04-29T01:17:08;9.90;99.90
19206;DHT22;59358;52.134;5.596;2023-04-29T01:19:47;9.90;99.90
19206;DHT22;59358;52.134;5.596;2023-04-29T01:22:15;9.80;99.90
19206;DHT22;59358;52.134;5.596;2023-04-29T01:24:44;9.90;99.90
19206;DHT22;59358;52.134;5.596;2023-04-29T01:27:20;9.90;99.90
19206;DHT22;59358;52.134;5.596;2023-04-29T01:29:54;9.90;99.90
19206;DHT22;59358;52.134;5.596;2023-04-29T01:32:32;9.90;99.90
19206;DHT22;59358;52.134;5.596;2023-04-29T01:35:08;9.90;99.90
19206;DHT22;59358;52.134;5.596;2023-04-29T01:37:42;9.90;99.90
19206;DHT22;59358;52.134;5.596;2023-04-29T01:40:16;9.90;99.90
19206;DHT22;59358;52.134;5.596;2023-04-29T01:42:47;9.90;99.90
19206;DHT22;59358;52.134;5.596;2023-04-29T01:45:15;9.80;99.90
19206;DHT22;59358;52.134;5.596;2023-04-29T01:47:44;9.80;99.90
19206;DHT22;59358;52.134;5.596;2023-04-29T01:50:12;9.80;99.90
19206;DHT22;59358;52.134;5.596;2023-04-29T01:52:38;9.80;99.90
19206;DHT22;59358;52.134;5.596;2023-04-29T01:55:06;9.80;99.90
19206;DHT22;59358;52.134;5.596;2023-04-29T01:57:34;9.80;99.90
19206;DHT22;59358;52.134;5.596;2023-04-29T02:00:01;9.80;99.90
19206;DHT22;59358;52.134;5.596;2023-04-29T02:02:29;9.80;99.90
19206;DHT22;59358;52.134;5.596;2023-04-29T02:04:56;9.90;99.90
19206;DHT22;59358;52.134;5.596;2023-04-29T02:07:22;9.80;99.90
19206;DHT22;59358;52.134;5.596;2023-04-29T02:09:49;9.80;99.90
19206;DHT22;59358;52.134;5.596;2023-04-29T02:12:16;9.90;99.90
19206;DHT22;59358;52.134;5.596;2023-04-29T02:14:44;9.80;99.90
19206;DHT22;59358;52.134;5.596;2023-04-29T02:17:12;9.80;99.90
19206;DHT22;59358;52.134;5.596;2023-04-29T02:19:39;9.90;99.90
19206;DHT22;59358;52.134;5.596;2023-04-29T02:22:05;9.90;99.90
19206;DHT22;59358;52.134;5.596;2023-04-29T02:24:32;9.90;99.90
19206;DHT22;59358;52.134;5.596;2023-04-29T02:26:59;9.90;99.90
19206;DHT22;59358;52.134;5.596;2023-04-29T02:29:30;9.90;99.90
19206;DHT22;59358;52.134;5.596;2023-04-29T02:31:58;9.90;99.90
19206;DHT22;59358;52.134;5.596;2023-04-29T02:34:24;9.90;99.90
19206;DHT22;59358;52.134;5.596;2023-04-29T02:36:51;9.90;99.90
19206;DHT22;59358;52.134;5.596;2023-04-29T02:39:18;9.90;99.90
19206;DHT22;59358;52.134;5.596;2023-04-29T02:41:45;9.80;99.90
19206;DHT22;59358;52.134;5.596;2023-04-29T02:44:12;9.80;99.90
19206;DHT22;59358;52.134;5.596;2023-04-29T02:46:38;9.90;99.90
19206;DHT22;59358;52.134;5.596;2023-04-29T02:49:11;9.90;99.90
19206;DHT22;59358;52.134;5.596;2023-04-29T02:51:38;9.90;99.90
19206;DHT22;59358;52.134;5.596;2023-04-29T02:54:05;9.90;99.90
19206;DHT22;59358;52.134;5.596;2023-04-29T02:56:32;9.90;99.90
19206;DHT22;59358;52.134;5.596;2023-04-29T02:58:59;10.00;99.90
19206;DHT22;59358;52.134;5.596;2023-04-29T03:01:26;10.00;99.90
19206;DHT22;59358;52.134;5.596;2023-04-29T03:03:53;10.00;99.90
19206;DHT22;59358;52.134;5.596;2023-04-29T03:06:21;10.00;99.90
19206;DHT22;59358;52.134;5.596;2023-04-29T03:08:48;10.00;99.90
19206;DHT22;59358;52.134;5.596;2023-04-29T03:11:15;9.90;99.90
19206;DHT22;59358;52.134;5.596;2023-04-29T03:13:42;9.90;99.90
19206;DHT22;59358;52.134;5.596;2023-04-29T03:16:10;9.90;99.90
19206;DHT22;59358;52.134;5.596;2023-04-29T03:18:38;9.90;99.90
19206;DHT22;59358;52.134;5.596;2023-04-29T03:21:05;9.90;99.90
19206;DHT22;59358;52.134;5.596;2023-04-29T03:23:33;9.90;99.90
19206;DHT22;59358;52.134;5.596;2023-04-29T03:26:00;9.90;99.90
19206;DHT22;59358;52.134;5.596;2023-04-29T03:28:27;9.80;99.90
19206;DHT22;59358;52.134;5.596;2023-04-29T03:30:54;9.80;99.90
19206;DHT22;59358;52.134;5.596;2023-04-29T03:33:21;9.90;99.90
19206;DHT22;59358;52.134;5.596;2023-04-29T03:35:48;9.80;99.90
19206;DHT22;59358;52.134;5.596;2023-04-29T03:38:15;9.80;99.90
19206;DHT22;59358;52.134;5.596;2023-04-29T03:40:43;9.80;99.90
19206;DHT22;59358;52.134;5.596;2023-04-29T03:43:10;9.90;99.90
19206;DHT22;59358;52.134;5.596;2023-04-29T03:45:38;9.80;99.90
19206;DHT22;59358;52.134;5.596;2023-04-29T03:48:05;9.90;99.90
19206;DHT22;59358;52.134;5.596;2023-04-29T03:50:32;9.80;99.90
19206;DHT22;59358;52.134;5.596;2023-04-29T03:52:59;9.90;99.90
19206;DHT22;59358;52.134;5.596;2023-04-29T03:55:25;9.90;99.90
19206;DHT22;59358;52.134;5.596;2023-04-29T03:57:54;9.90;99.90
19206;DHT22;59358;52.134;5.596;2023-04-29T04:00:20;9.90;99.90
19206;DHT22;59358;52.134;5.596;2023-04-29T04:02:48;9.80;99.90
19206;DHT22;59358;52.134;5.596;2023-04-29T04:05:15;9.80;99.90
19206;DHT22;59358;52.134;5.596;2023-04-29T04:07:43;9.80;99.90
19206;DHT22;59358;52.134;5.596;2023-04-29T04:10:10;9.70;99.90
19206;DHT22;59358;52.134;5.596;2023-04-29T04:12:37;9.80;99.90
19206;DHT22;59358;52.134;5.596;2023-04-29T04:15:06;9.70;99.90
19206;DHT22;59358;52.134;5.596;2023-04-29T04:17:33;9.70;99.90
19206;DHT22;59358;52.134;5.596;2023-04-29T04:20:00;9.70;99.90
19206;DHT22;59358;52.134;5.596;2023-04-29T04:22:27;9.70;99.90
19206;DHT22;59358;52.134;5.596;2023-04-29T04:24:54;9.70;99.90
19206;DHT22;59358;52.134;5.596;2023-04-29T04:27:20;9.70;99.90
19206;DHT22;59358;52.134;5.596;2023-04-29T04:29:47;9.70;99.90
19206;DHT22;59358;52.134;5.596;2023-04-29T04:32:16;9.80;99.90
19206;DHT22;59358;52.134;5.596;2023-04-29T04:34:43;9.80;99.90
19206;DHT22;59358;52.134;5.596;2023-04-29T04:37:10;9.80;99.90
19206;DHT22;59358;52.134;5.596;2023-04-29T04:39:38;9.80;99.90
19206;DHT22;59358;52.134;5.596;2023-04-29T04:42:04;9.90;99.90
19206;DHT22;59358;52.134;5.596;2023-04-29T04:44:31;9.90;99.90
19206;DHT22;59358;52.134;5.596;2023-04-29T04:46:58;10.00;99.90
19206;DHT22;59358;52.134;5.596;2023-04-29T04:49:27;10.10;99.90
19206;DHT22;59358;52.134;5.596;2023-04-29T04:51:54;10.10;99.90
19206;DHT22;59358;52.134;5.596;2023-04-29T04:54:21;10.10;99.90
19206;DHT22;59358;52.134;5.596;2023-04-29T04:56:48;10.10;99.90
19206;DHT22;59358;52.134;5.596;2023-04-29T04:59:16;10.20;99.90
19206;DHT22;59358;52.134;5.596;2023-04-29T05:01:43;10.10;99.90
19206;DHT22;59358;52.134;5.596;2023-04-29T05:04:10;10.20;99.90
19206;DHT22;59358;52.134;5.596;2023-04-29T05:06:38;10.20;99.90
19206;DHT22;59358;52.134;5.596;2023-04-29T05:09:05;10.20;99.90
19206;DHT22;59358;52.134;5.596;2023-04-29T05:11:31;10.20;99.90
19206;DHT22;59358;52.134;5.596;2023-04-29T05:13:58;10.20;99.90
19206;DHT22;59358;52.134;5.596;2023-04-29T05:16:25;10.20;99.90
19206;DHT22;59358;52.134;5.596;2023-04-29T05:18:52;10.30;99.90
19206;DHT22;59358;52.134;5.596;2023-04-29T05:21:18;10.20;99.90
19206;DHT22;59358;52.134;5.596;2023-04-29T05:23:47;10.20;99.90
19206;DHT22;59358;52.134;5.596;2023-04-29T05:26:13;10.30;99.90
19206;DHT22;59358;52.134;5.596;2023-04-29T05:28:40;10.40;99.90
19206;DHT22;59358;52.134;5.596;2023-04-29T05:31:07;10.40;99.90
19206;DHT22;59358;52.134;5.596;2023-04-29T05:33:34;10.40;99.90
19206;DHT22;59358;52.134;5.596;2023-04-29T05:36:01;10.40;99.90
19206;DHT22;59358;52.134;5.596;2023-04-29T05:38:27;10.40;99.90
19206;DHT22;59358;52.134;5.596;2023-04-29T05:40:55;10.40;99.90
19206;DHT22;59358;52.134;5.596;2023-04-29T05:43:22;10.50;99.90
19206;DHT22;59358;52.134;5.596;2023-04-29T05:45:49;10.50;99.90
19206;DHT22;59358;52.134;5.596;2023-04-29T05:48:16;10.50;99.90
19206;DHT22;59358;52.134;5.596;2023-04-29T05:50:43;10.50;99.90
19206;DHT22;59358;52.134;5.596;2023-04-29T05:53:10;10.60;99.90
19206;DHT22;59358;52.134;5.596;2023-04-29T05:55:38;10.60;99.90
19206;DHT22;59358;52.134;5.596;2023-04-29T05:58:06;10.60;99.90
19206;DHT22;59358;52.134;5.596;2023-04-29T06:00:33;10.60;99.90
19206;DHT22;59358;52.134;5.596;2023-04-29T06:02:59;10.60;99.90
19206;DHT22;59358;52.134;5.596;2023-04-29T06:05:26;10.70;99.90
19206;DHT22;59358;52.134;5.596;2023-04-29T06:07:53;10.70;99.90
19206;DHT22;59358;52.134;5.596;2023-04-29T06:10:20;10.70;99.90
19206;DHT22;59358;52.134;5.596;2023-04-29T06:12:46;10.70;99.90
19206;DHT22;59358;52.134;5.596;2023-04-29T06:15:17;10.80;99.90
19206;DHT22;59358;52.134;5.596;2023-04-29T06:17:44;10.70;99.90
19206;DHT22;59358;52.134;5.596;2023-04-29T06:20:11;10.70;99.90
19206;DHT22;59358;52.134;5.596;2023-04-29T06:22:38;10.80;99.90
19206;DHT22;59358;52.134;5.596;2023-04-29T06:25:05;10.90;99.90
19206;DHT22;59358;52.134;5.596;2023-04-29T06:27:32;11.00;99.90
19206;DHT22;59358;52.134;5.596;2023-04-29T06:29:59;11.20;99.90
19206;DHT22;59358;52.134;5.596;2023-04-29T06:32:27;11.30;99.90
19206;DHT22;59358;52.134;5.596;2023-04-29T06:34:54;11.40;99.90
19206;DHT22;59358;52.134;5.596;2023-04-29T06:37:20;11.40;99.90
19206;DHT22;59358;52.134;5.596;2023-04-29T06:39:47;11.40;99.90
19206;DHT22;59358;52.134;5.596;2023-04-29T06:42:14;11.50;99.90
19206;DHT22;59358;52.134;5.596;2023-04-29T06:44:41;11.50;99.90
19206;DHT22;59358;52.134;5.596;2023-04-29T06:47:08;11.50;99.90
19206;DHT22;59358;52.134;5.596;2023-04-29T06:49:36;11.50;99.90
19206;DHT22;59358;52.134;5.596;2023-04-29T06:52:03;11.60;99.90
19206;DHT22;59358;52.134;5.596;2023-04-29T06:54:30;11.70;99.90
19206;DHT22;59358;52.134;5.596;2023-04-29T06:56:57;11.80;99.90
19206;DHT22;59358;52.134;5.596;2023-04-29T06:59:23;11.90;99.90
19206;DHT22;59358;52.134;5.596;2023-04-29T07:01:50;11.90;99.90
19206;DHT22;59358;52.134;5.596;2023-04-29T07:04:17;11.90;99.90
19206;DHT22;59358;52.134;5.596;2023-04-29T07:06:45;11.80;99.90
19206;DHT22;59358;52.134;5.596;2023-04-29T07:09:12;11.90;99.90
19206;DHT22;59358;52.134;5.596;2023-04-29T07:11:39;12.00;99.90
19206;DHT22;59358;52.134;5.596;2023-04-29T07:14:06;12.10;99.90
19206;DHT22;59358;52.134;5.596;2023-04-29T07:16:33;12.30;99.90
19206;DHT22;59358;52.134;5.596;2023-04-29T07:19:00;12.50;99.90
19206;DHT22;59358;52.134;5.596;2023-04-29T07:21:26;12.70;99.90
19206;DHT22;59358;52.134;5.596;2023-04-29T07:23:56;12.90;99.90
19206;DHT22;59358;52.134;5.596;2023-04-29T07:26:25;13.10;99.90
19206;DHT22;59358;52.134;5.596;2023-04-29T07:28:52;13.00;99.90
19206;DHT22;59358;52.134;5.596;2023-04-29T07:31:19;12.80;99.90
19206;DHT22;59358;52.134;5.596;2023-04-29T07:33:46;12.90;99.90
19206;DHT22;59358;52.134;5.596;2023-04-29T07:36:13;13.00;99.90
19206;DHT22;59358;52.134;5.596;2023-04-29T07:38:40;13.20;99.90
19206;DHT22;59358;52.134;5.596;2023-04-29T07:41:08;13.30;99.90
19206;DHT22;59358;52.134;5.596;2023-04-29T07:43:35;13.40;99.90
19206;DHT22;59358;52.134;5.596;2023-04-29T07:46:02;13.20;99.90
19206;DHT22;59358;52.134;5.596;2023-04-29T07:48:29;13.20;99.90
19206;DHT22;59358;52.134;5.596;2023-04-29T07:50:56;13.20;99.90
19206;DHT22;59358;52.134;5.596;2023-04-29T07:53:22;13.40;99.90
19206;DHT22;59358;52.134;5.596;2023-04-29T07:55:49;13.80;99.90
19206;DHT22;59358;52.134;5.596;2023-04-29T07:58:17;14.10;99.90
19206;DHT22;59358;52.134;5.596;2023-04-29T08:00:44;14.10;99.90
19206;DHT22;59358;52.134;5.596;2023-04-29T08:03:11;13.90;99.90
19206;DHT22;59358;52.134;5.596;2023-04-29T08:05:38;13.50;99.90
19206;DHT22;59358;52.134;5.596;2023-04-29T08:08:05;13.10;99.90
19206;DHT22;59358;52.134;5.596;2023-04-29T08:10:32;13.10;99.90
19206;DHT22;59358;52.134;5.596;2023-04-29T08:12:59;13.00;99.90
19206;DHT22;59358;52.134;5.596;2023-04-29T08:15:27;13.10;99.90
19206;DHT22;59358;52.134;5.596;2023-04-29T08:17:54;13.30;99.90
19206;DHT22;59358;52.134;5.596;2023-04-29T08:20:20;13.60;99.90
19206;DHT22;59358;52.134;5.596;2023-04-29T08:22:47;13.80;99.90
19206;DHT22;59358;52.134;5.596;2023-04-29T08:25:14;14.00;99.90
19206;DHT22;59358;52.134;5.596;2023-04-29T08:27:42;14.00;99.90
19206;DHT22;59358;52.134;5.596;2023-04-29T08:30:10;14.10;99.90
19206;DHT22;59358;52.134;5.596;2023-04-29T08:32:39;14.30;99.90
19206;DHT22;59358;52.134;5.596;2023-04-29T08:35:06;14.60;99.90
19206;DHT22;59358;52.134;5.596;2023-04-29T08:37:33;14.90;99.90
19206;DHT22;59358;52.134;5.596;2023-04-29T08:40:01;14.50;99.90
19206;DHT22;59358;52.134;5.596;2023-04-29T08:42:32;13.90;99.90
19206;DHT22;59358;52.134;5.596;2023-04-29T08:44:59;13.60;99.90
19206;DHT22;59358;52.134;5.596;2023-04-29T08:47:29;13.60;99.90
19206;DHT22;59358;52.134;5.596;2023-04-29T08:50:00;13.80;99.90
19206;DHT22;59358;52.134;5.596;2023-04-29T08:52:27;13.80;99.90
19206;DHT22;59358;52.134;5.596;2023-04-29T08:54:54;13.80;99.90
19206;DHT22;59358;52.134;5.596;2023-04-29T08:57:22;14.00;99.90
19206;DHT22;59358;52.134;5.596;2023-04-29T08:59:51;13.90;99.90
19206;DHT22;59358;52.134;5.596;2023-04-29T09:02:17;14.00;99.90
19206;DHT22;59358;52.134;5.596;2023-04-29T09:04:48;13.80;99.90
19206;DHT22;59358;52.134;5.596;2023-04-29T09:07:18;13.50;99.90
19206;DHT22;59358;52.134;5.596;2023-04-29T09:09:45;13.60;99.90
19206;DHT22;59358;52.134;5.596;2023-04-29T09:12:12;13.70;99.90
19206;DHT22;59358;52.134;5.596;2023-04-29T09:14:39;13.80;99.90
19206;DHT22;59358;52.134;5.596;2023-04-29T09:17:06;14.10;99.90
19206;DHT22;59358;52.134;5.596;2023-04-29T09:19:34;14.20;99.90
19206;DHT22;59358;52.134;5.596;2023-04-29T09:22:02;14.30;99.90
19206;DHT22;59358;52.134;5.596;2023-04-29T09:24:31;14.60;99.90
19206;DHT22;59358;52.134;5.596;2023-04-29T09:26:58;14.80;99.90
19206;DHT22;59358;52.134;5.596;2023-04-29T09:29:26;15.00;99.90
19206;DHT22;59358;52.134;5.596;2023-04-29T09:31:54;15.30;99.90
19206;DHT22;59358;52.134;5.596;2023-04-29T09:34:30;15.30;99.90
19206;DHT22;59358;52.134;5.596;2023-04-29T09:36:57;14.70;99.90
19206;DHT22;59358;52.134;5.596;2023-04-29T09:39:24;14.40;99.90
19206;DHT22;59358;52.134;5.596;2023-04-29T09:41:59;14.00;99.90
19206;DHT22;59358;52.134;5.596;2023-04-29T09:44:29;14.10;99.90
19206;DHT22;59358;52.134;5.596;2023-04-29T09:46:57;14.40;99.90
19206;DHT22;59358;52.134;5.596;2023-04-29T09:49:25;14.50;99.90
19206;DHT22;59358;52.134;5.596;2023-04-29T09:51:54;14.40;99.90
19206;DHT22;59358;52.134;5.596;2023-04-29T09:54:23;14.50;99.90
19206;DHT22;59358;52.134;5.596;2023-04-29T09:56:51;14.60;99.90
19206;DHT22;59358;52.134;5.596;2023-04-29T09:59:20;14.60;99.90
19206;DHT22;59358;52.134;5.596;2023-04-29T10:01:48;14.60;99.90
19206;DHT22;59358;52.134;5.596;2023-04-29T10:04:16;14.50;99.90
19206;DHT22;59358;52.134;5.596;2023-04-29T10:06:44;14.70;99.90
19206;DHT22;59358;52.134;5.596;2023-04-29T10:09:13;14.90;99.90
19206;DHT22;59358;52.134;5.596;2023-04-29T10:11:43;14.80;99.90
19206;DHT22;59358;52.134;5.596;2023-04-29T10:14:12;14.90;99.90
19206;DHT22;59358;52.134;5.596;2023-04-29T10:16:46;15.10;99.90
19206;DHT22;59358;52.134;5.596;2023-04-29T10:19:20;15.40;99.90
19206;DHT22;59358;52.134;5.596;2023-04-29T10:21:53;15.50;99.90
19206;DHT22;59358;52.134;5.596;2023-04-29T10:24:21;15.50;99.90
19206;DHT22;59358;52.134;5.596;2023-04-29T10:26:50;15.50;99.90
19206;DHT22;59358;52.134;5.596;2023-04-29T10:29:18;15.50;99.90
19206;DHT22;59358;52.134;5.596;2023-04-29T10:31:47;15.60;99.90
19206;DHT22;59358;52.134;5.596;2023-04-29T10:34:16;15.50;99.90
19206;DHT22;59358;52.134;5.596;2023-04-29T10:36:43;15.70;99.90
19206;DHT22;59358;52.134;5.596;2023-04-29T10:39:16;15.70;99.90
19206;DHT22;59358;52.134;5.596;2023-04-29T10:41:48;15.60;99.90
19206;DHT22;59358;52.134;5.596;2023-04-29T10:44:16;15.70;99.90
19206;DHT22;59358;52.134;5.596;2023-04-29T10:46:43;15.60;99.90
19206;DHT22;59358;52.134;5.596;2023-04-29T10:49:11;15.70;99.90
19206;DHT22;59358;52.134;5.596;2023-04-29T10:51:42;15.90;99.90
19206;DHT22;59358;52.134;5.596;2023-04-29T10:54:12;16.30;99.90
19206;DHT22;59358;52.134;5.596;2023-04-29T10:56:43;16.30;99.90
19206;DHT22;59358;52.134;5.596;2023-04-29T10:59:14;16.30;99.90
19206;DHT22;59358;52.134;5.596;2023-04-29T11:01:43;16.40;99.90
19206;DHT22;59358;52.134;5.596;2023-04-29T11:04:12;16.60;99.90
19206;DHT22;59358;52.134;5.596;2023-04-29T11:06:41;16.70;99.90
19206;DHT22;59358;52.134;5.596;2023-04-29T11:09:11;16.90;99.90
19206;DHT22;59358;52.134;5.596;2023-04-29T11:14:30;16.70;99.90
19206;DHT22;59358;52.134;5.596;2023-04-29T11:16:58;16.50;99.90
19206;DHT22;59358;52.134;5.596;2023-04-29T11:19:30;17.00;99.90
19206;DHT22;59358;52.134;5.596;2023-04-29T11:22:23;17.20;99.90
19206;DHT22;59358;52.134;5.596;2023-04-29T11:24:53;17.40;99.90
19206;DHT22;59358;52.134;5.596;2023-04-29T11:27:22;17.70;99.90
19206;DHT22;59358;52.134;5.596;2023-04-29T11:29:51;17.90;99.90
19206;DHT22;59358;52.134;5.596;2023-04-29T11:32:22;17.70;99.90
19206;DHT22;59358;52.134;5.596;2023-04-29T11:34:51;17.30;99.90
19206;DHT22;59358;52.134;5.596;2023-04-29T11:37:20;17.00;99.90
19206;DHT22;59358;52.134;5.596;2023-04-29T11:39:47;17.00;99.90
19206;DHT22;59358;52.134;5.596;2023-04-29T11:42:19;17.20;99.90
19206;DHT22;59358;52.134;5.596;2023-04-29T11:44:45;17.60;99.90
19206;DHT22;59358;52.134;5.596;2023-04-29T11:47:12;18.10;99.90
19206;DHT22;59358;52.134;5.596;2023-04-29T11:49:39;18.60;99.90
19206;DHT22;59358;52.134;5.596;2023-04-29T11:52:08;18.70;99.90
19206;DHT22;59358;52.134;5.596;2023-04-29T11:54:36;18.00;99.90
19206;DHT22;59358;52.134;5.596;2023-04-29T11:57:03;17.30;99.90
19206;DHT22;59358;52.134;5.596;2023-04-29T11:59:30;17.00;99.90
19206;DHT22;59358;52.134;5.596;2023-04-29T12:01:58;17.00;99.90
19206;DHT22;59358;52.134;5.596;2023-04-29T12:04:25;17.40;99.90
19206;DHT22;59358;52.134;5.596;2023-04-29T12:06:52;17.90;99.90
19206;DHT22;59358;52.134;5.596;2023-04-29T12:09:20;17.70;99.90
19206;DHT22;59358;52.134;5.596;2023-04-29T12:11:48;18.00;99.90
19206;DHT22;59358;52.134;5.596;2023-04-29T12:14:15;17.90;99.90
19206;DHT22;59358;52.134;5.596;2023-04-29T12:16:43;18.10;99.90
19206;DHT22;59358;52.134;5.596;2023-04-29T12:19:11;18.20;99.90
19206;DHT22;59358;52.134;5.596;2023-04-29T12:21:47;18.70;99.90
19206;DHT22;59358;52.134;5.596;2023-04-29T12:24:14;18.70;99.90
19206;DHT22;59358;52.134;5.596;2023-04-29T12:26:44;18.50;99.90
19206;DHT22;59358;52.134;5.596;2023-04-29T12:29:11;18.00;99.90
19206;DHT22;59358;52.134;5.596;2023-04-29T12:31:38;17.70;99.90
19206;DHT22;59358;52.134;5.596;2023-04-29T12:34:06;17.50;99.90
19206;DHT22;59358;52.134;5.596;2023-04-29T12:36:33;17.30;99.90
19206;DHT22;59358;52.134;5.596;2023-04-29T12:39:04;17.70;99.90
19206;DHT22;59358;52.134;5.596;2023-04-29T12:41:38;17.60;99.90
19206;DHT22;59358;52.134;5.596;2023-04-29T12:44:06;17.50;99.90
19206;DHT22;59358;52.134;5.596;2023-04-29T12:46:35;17.50;99.90
19206;DHT22;59358;52.134;5.596;2023-04-29T12:49:03;17.60;99.90
19206;DHT22;59358;52.134;5.596;2023-04-29T12:51:31;17.60;99.90
19206;DHT22;59358;52.134;5.596;2023-04-29T12:53:58;17.50;99.90
19206;DHT22;59358;52.134;5.596;2023-04-29T12:56:25;17.50;99.90
19206;DHT22;59358;52.134;5.596;2023-04-29T12:58:52;17.90;99.90
19206;DHT22;59358;52.134;5.596;2023-04-29T13:01:20;17.80;99.90
19206;DHT22;59358;52.134;5.596;2023-04-29T13:03:47;17.80;99.90
19206;DHT22;59358;52.134;5.596;2023-04-29T13:06:15;17.90;99.90
19206;DHT22;59358;52.134;5.596;2023-04-29T13:08:42;18.30;99.90
19206;DHT22;59358;52.134;5.596;2023-04-29T13:11:09;18.90;99.90
19206;DHT22;59358;52.134;5.596;2023-04-29T13:13:37;18.90;99.90
19206;DHT22;59358;52.134;5.596;2023-04-29T13:16:05;18.70;99.90
19206;DHT22;59358;52.134;5.596;2023-04-29T13:18:34;18.50;99.90
19206;DHT22;59358;52.134;5.596;2023-04-29T13:21:01;18.30;99.90
19206;DHT22;59358;52.134;5.596;2023-04-29T13:23:28;18.30;99.90
19206;DHT22;59358;52.134;5.596;2023-04-29T13:25:55;18.50;99.90
19206;DHT22;59358;52.134;5.596;2023-04-29T13:28:22;18.70;99.90
19206;DHT22;59358;52.134;5.596;2023-04-29T13:30:49;18.70;99.90
19206;DHT22;59358;52.134;5.596;2023-04-29T13:33:16;18.70;99.90
19206;DHT22;59358;52.134;5.596;2023-04-29T13:35:46;19.00;99.90
19206;DHT22;59358;52.134;5.596;2023-04-29T13:38:13;19.00;99.40
19206;DHT22;59358;52.134;5.596;2023-04-29T13:40:40;18.90;99.10
19206;DHT22;59358;52.134;5.596;2023-04-29T13:43:07;18.50;99.90
19206;DHT22;59358;52.134;5.596;2023-04-29T13:45:34;18.60;99.90
19206;DHT22;59358;52.134;5.596;2023-04-29T13:48:01;19.10;99.70
19206;DHT22;59358;52.134;5.596;2023-04-29T13:50:27;19.40;99.50
19206;DHT22;59358;52.134;5.596;2023-04-29T13:52:56;19.40;99.00
19206;DHT22;59358;52.134;5.596;2023-04-29T13:55:23;19.10;98.90
19206;DHT22;59358;52.134;5.596;2023-04-29T13:57:49;18.90;99.40
19206;DHT22;59358;52.134;5.596;2023-04-29T14:00:17;18.80;99.00
19206;DHT22;59358;52.134;5.596;2023-04-29T14:02:44;19.00;99.80
19206;DHT22;59358;52.134;5.596;2023-04-29T14:05:11;19.60;98.50
19206;DHT22;59358;52.134;5.596;2023-04-29T14:07:38;19.70;99.00
19206;DHT22;59358;52.134;5.596;2023-04-29T14:10:07;19.90;99.20
19206;DHT22;59358;52.134;5.596;2023-04-29T14:12:34;19.80;99.40
19206;DHT22;59358;52.134;5.596;2023-04-29T14:15:00;19.30;99.70
19206;DHT22;59358;52.134;5.596;2023-04-29T14:17:27;18.90;99.90
19206;DHT22;59358;52.134;5.596;2023-04-29T14:19:54;18.50;99.90
19206;DHT22;59358;52.134;5.596;2023-04-29T14:22:21;18.40;99.90
19206;DHT22;59358;52.134;5.596;2023-04-29T14:24:47;18.50;99.90
19206;DHT22;59358;52.134;5.596;2023-04-29T14:27:15;18.50;99.90
19206;DHT22;59358;52.134;5.596;2023-04-29T14:29:42;18.70;99.90
19206;DHT22;59358;52.134;5.596;2023-04-29T14:32:09;18.90;99.90
19206;DHT22;59358;52.134;5.596;2023-04-29T14:34:36;18.90;99.90
19206;DHT22;59358;52.134;5.596;2023-04-29T14:37:03;19.10;99.90
19206;DHT22;59358;52.134;5.596;2023-04-29T14:39:29;19.10;99.60
19206;DHT22;59358;52.134;5.596;2023-04-29T14:41:56;19.10;99.90
19206;DHT22;59358;52.134;5.596;2023-04-29T14:44:25;19.00;99.90
19206;DHT22;59358;52.134;5.596;2023-04-29T14:46:51;19.70;99.70
19206;DHT22;59358;52.134;5.596;2023-04-29T14:49:18;20.30;98.30
19206;DHT22;59358;52.134;5.596;2023-04-29T14:51:45;20.00;97.80
19206;DHT22;59358;52.134;5.596;2023-04-29T14:54:12;19.70;98.70
19206;DHT22;59358;52.134;5.596;2023-04-29T14:56:38;19.70;98.50
19206;DHT22;59358;52.134;5.596;2023-04-29T14:59:05;19.70;98.70
19206;DHT22;59358;52.134;5.596;2023-04-29T15:01:34;20.00;98.00
19206;DHT22;59358;52.134;5.596;2023-04-29T15:04:01;20.30;98.20
19206;DHT22;59358;52.134;5.596;2023-04-29T15:06:29;20.70;97.70
19206;DHT22;59358;52.134;5.596;2023-04-29T15:08:56;21.00;96.80
19206;DHT22;59358;52.134;5.596;2023-04-29T15:11:23;20.70;96.80
19206;DHT22;59358;52.134;5.596;2023-04-29T15:13:50;20.80;97.20
19206;DHT22;59358;52.134;5.596;2023-04-29T15:16:17;20.90;97.30
19206;DHT22;59358;52.134;5.596;2023-04-29T15:18:45;21.60;96.40
19206;DHT22;59358;52.134;5.596;2023-04-29T15:21:12;22.00;95.30
19206;DHT22;59358;52.134;5.596;2023-04-29T15:23:38;22.30;94.90
19206;DHT22;59358;52.134;5.596;2023-04-29T15:26:05;22.60;94.80
19206;DHT22;59358;52.134;5.596;2023-04-29T15:28:32;23.00;94.20
19206;DHT22;59358;52.134;5.596;2023-04-29T15:30:59;22.50;94.50
19206;DHT22;59358;52.134;5.596;2023-04-29T15:33:29;22.60;94.30
19206;DHT22;59358;52.134;5.596;2023-04-29T15:35:58;22.90;94.00
19206;DHT22;59358;52.134;5.596;2023-04-29T15:38:25;23.10;93.30
19206;DHT22;59358;52.134;5.596;2023-04-29T15:40:53;23.20;94.00